Terminal Aerodrome Forecast
Issued by NWS

Home | Current Version | Previous Version | Text Only | Print | Product List | Glossary On
Versions: 1 2 3 4 5 6 7 8 9 10 11 12 13 14 15 16 17 18 19 20
000
FTUS45 KSLC 272340
TAFLGU
TAF
KLGU 272340Z 2800/2824 02009KT P6SM VCSH SCT090 BKN120
      TEMPO 2800/2801 35020G30KT
     FM280300 VRB05KT P6SM FEW120 SCT200=

USA.gov is the U.S. government's official web portal to all federal, state and local government web resources and services.